South Lancaster, MA (01561)

10:14 AM EST on December 05, 2016 (GMT -0500)
John Sprague House | | Change Station

Elev 269 ft 42.45 °N, 71.66 °W | Updated 13 minutes ago

Light Snow
Light Snow Mist
28.1 °F
Feels Like 28 °F
N
0.0
Wind Variable Wind from NNE
Gusts 0.0 mph

Today
High -- | Low -- °F
--% Chance of Precip.
Yesterday
High -- | Low -- °F
Precip. -- in
Pressure 30.03 in
Visibility 0.8 miles
Clouds Overcast 1400 ft
Windchill 28 °F
Dew Point 26 °F
Humidity 92%
Rainfall in
Snow Depth Not available.
7:01 AM 4:13 PM
Waxing Crescent, 32% visible
METAR KFIT 051452Z AUTO 00000KT 3/4SM -SN BR OVC014 M02/M04 A3002 RMK AO2 SLP169 P0003 60009 T10171039 56012
Pressure 30.03 in
Visibility 0.8 miles
Clouds Overcast 1400 ft
Windchill 28 °F
Dew Point 26 °F
Humidity 92%
Rainfall in
Snow Depth Not available.
7:01 AM 4:13 PM
Waxing Crescent, 32% visible
METAR KFIT 051452Z AUTO 00000KT 3/4SM -SN BR OVC014 M02/M04 A3002 RMK AO2 SLP169 P0003 60009 T10171039 56012

10-Day Weather Forecast

Almanac

Astronomy

Dec. 05, 2016 Rise Set
Actual Time
Civil Twilight
Nautical Twilight
Astronomical Twilight
Moon
Length of Visible Light
Length of Day
Tomorrow will be .
, % of the Moon is Illuminated

Today's Extremes

State Highs State Lows

Community

WunderPhotos

Upload Photos

1,955,789 photos uploaded!

WunderBlog® & News

Nearby

Air Quality

  Air Quality AQ Index Pollutant
Not available.

Snow Depth

Station Depth Elevation

Earthquake Activity

City Distance Mag. Time & Date
Minimum magnitude displayed is 2.5.

Coastal Water Temperatures

Place Temperature

Stations

Nearby Weather Stations

Station Location Temp. Windchill Dew Point Humidity Wind Precip. Elev Updated Type
                   

Watches & Warnings

There are currently no watches in effect.